WICT2: Wichita River At Wichita Falls, TX

                                SHEF ID:       WICT2     Wichita Rv at Wichita Falls, TX
STATION TYPE:
Regulating: Stage = 18.50, Flow = 5482

PRECIP STAGE RIV-FLOW WTR-TEMP CONDUCT BAT-LOAD
in ft cfs F umho/cm volt
Ccp-Rev Ccp-Rev Ccp-Rev Ccp-Rev Ccp-Rev Ccp-Rev
(America/Chicago)
04/18 00:00 ---- 2.90 123 72.81 984 12.07
04/18 01:00 ---- 2.87 119 72.45 1017 12.06
04/18 02:00 ---- 2.88 120 71.64 1040 12.03
04/18 03:00 ---- 2.84 115 70.77 1038 12.01
04/18 04:00 ---- 2.86 117 70.14 1086 11.98
04/18 05:00 ---- 2.84 115 69.21 1084 11.95
04/18 06:00 ---- 2.80 110 68.23 1079 11.94
04/18 07:00 ---- 2.77 105 67.60 1144 11.85
04/18 08:00 ---- 2.74 101 66.92 1234 11.91
04/18 09:00 ---- 2.73 100 66.43 1247 11.98
04/18 10:00 ---- 2.69 95 66.07 1240 12.66
04/18 11:00 ---- 2.70 96 66.24 1258 12.73
04/18 12:00 ---- 2.66 91 66.18 1295 13.07
04/18 13:00 ---- 2.66 91 67.08 1320 12.93
04/18 14:00 ---- 2.65 90 68.36 1307 12.60
04/18 15:00 ---- 2.63 87 69.49 1317 12.48
04/18 16:00 ---- 2.63 87 70.32 1365 12.41
04/18 17:00 ---- 2.64 89 70.77 1420 12.36
04/18 18:00 ---- 2.64 89 70.74 1438 12.21
04/18 19:00 ---- 2.61 85 70.27 1443 12.18
04/18 20:00 ---- 2.61 85 69.53 1463 12.14
04/18 21:00 ---- 2.60 84 68.77 1496 12.14
04/18 22:00 ---- 2.58 81 68.05 1510 12.13
04/18 23:00 ---- 2.57 80 67.44 1512 12.10
Data processed at Sun 19Apr2026 04:58 GMT

NOTICE: If you are parsing this page

Please convert to using our Data API. Starting early 2026 we will be migrating to: https://water.usace.army.mil with modern pages rendered in JavaScript. When this migration completes you will no longer be able to scrape this page! CWMSDataAPI (CDA)

Timeseries IDs (TSIDs)

TSIDs used from left to right in the data table
WFAL.Precip-Inc.Total.1Hour.1Hour.Ccp-Rev
WFAL.Stage.Inst.1Hour.0.Ccp-Rev
WFAL.Flow.Inst.1Hour.0.Ccp-Rev
WFAL.Temp-Water.Inst.1Hour.0.Ccp-Rev
WFAL.Cond-Water.Inst.1Hour.0.Ccp-Rev
WFAL.Volt-Battery Load.Inst.1Hour.0.Ccp-Rev

                            

All information presented herein is the property of the government of the United States of America and may be revised or deleted at any time without prior notice. Dissemination of this information without the expressed written consent of the Public Affairs Office, Tulsa District U.S. Army Corps of Engineers is strictly prohibited. These data are gathered electronically and, as presented, have NOT undergone any form of quality control. These data are NOT guaranteed to be valid or correct.